Time;durP1;ratioP1;P1;durP2;ratioP2;P2;SDS_P1;SDS_P2;PMS_P1;PMS_P2;Temp;Humidity;BMP_temperature;BMP_pressure;BME280_temperature;BME280_humidity;BME280_pressure;Samples;Min_cycle;Max_cycle;Signal;HPM_P1;HPM_P2
2022/08/26 00:01:32;;;;;;;6.88;1.30;;;;;;;13.07;81.40;100768.00;4936682;29;20105;-71
2022/08/26 00:03:58;;;;;;;6.38;1.38;;;;;;;13.03;81.14;100764.16;4920995;29;20035;-72
2022/08/26 00:06:24;;;;;;;5.95;1.35;;;;;;;13.07;81.58;100768.00;4906541;29;20035;-70
2022/08/26 00:08:49;;;;;;;4.53;1.20;;;;;;;13.03;81.20;100770.47;4943371;28;20031;-72
2022/08/26 00:11:14;;;;;;;3.85;1.15;;;;;;;12.98;81.47;100766.91;4918992;29;20032;-72
2022/08/26 00:13:40;;;;;;;4.47;1.48;;;;;;;12.94;80.93;100772.13;4914351;29;20110;-72
2022/08/26 00:16:07;;;;;;;4.05;1.02;;;;;;;12.92;80.99;100779.78;4937457;29;20031;-72
2022/08/26 00:18:32;;;;;;;4.15;1.17;;;;;;;12.90;81.57;100779.25;4931116;29;20559;-72
2022/08/26 00:20:58;;;;;;;3.58;0.88;;;;;;;12.89;81.21;100780.34;4934542;29;20034;-70
2022/08/26 00:23:24;;;;;;;2.22;0.52;;;;;;;12.87;81.66;100786.09;4920483;29;20040;-71
2022/08/26 00:25:50;;;;;;;6.53;1.35;;;;;;;12.86;81.27;100786.38;4914100;29;20411;-74
2022/08/26 00:28:16;;;;;;;4.78;1.80;;;;;;;12.82;81.70;100779.78;4930244;29;20028;-73
2022/08/26 00:30:41;;;;;;;9.70;1.20;;;;;;;12.82;80.98;100782.53;4897948;29;20810;-74
2022/08/26 00:33:07;;;;;;;3.80;1.05;;;;;;;12.84;81.57;100783.09;4934745;29;20027;-73
2022/08/26 00:35:33;;;;;;;2.15;0.80;;;;;;;12.84;80.88;100783.09;4934099;29;20046;-74
2022/08/26 00:38:00;;;;;;;4.88;1.23;;;;;;;12.80;80.87;100771.00;4917956;29;20142;-72
2022/08/26 00:40:34;;;;;;;5.75;1.20;;;;;;;12.80;80.89;100777.31;4937028;29;20092;-73
2022/08/26 00:43:00;;;;;;;9.82;1.85;;;;;;;12.89;81.33;100783.09;4909256;29;20044;-72
2022/08/26 00:45:26;;;;;;;8.23;1.42;;;;;;;12.90;80.79;100787.47;4917485;29;20043;-71
2022/08/26 00:47:56;;;;;;;8.00;1.90;;;;;;;12.81;81.12;100778.97;4933846;29;20502;-74
2022/08/26 00:50:28;;;;;;;6.60;1.40;;;;;;;12.79;81.05;100785.81;4930490;29;21046;-71
2022/08/26 00:52:56;;;;;;;5.90;1.30;;;;;;;12.71;81.45;100778.94;4927182;29;20032;-72
2022/08/26 00:55:32;;;;;;;4.72;1.83;;;;;;;12.66;81.27;100787.16;4932781;29;20168;-73
2022/08/26 00:57:59;;;;;;;5.38;1.30;;;;;;;12.56;81.53;100782.50;4925069;29;20023;-73
2022/08/26 01:00:29;;;;;;;5.20;0.88;;;;;;;12.54;81.93;100787.41;4930292;29;20064;-73
2022/08/26 01:02:56;;;;;;;8.23;1.48;;;;;;;12.48;81.33;100783.81;4933985;29;20087;-71
2022/08/26 01:05:22;;;;;;;4.57;0.98;;;;;;;12.46;81.91;100776.97;4900727;29;20047;-71
2022/08/26 01:07:49;;;;;;;4.03;1.20;;;;;;;12.47;81.73;100786.84;4921848;29;20497;-74
2022/08/26 01:10:26;;;;;;;4.82;1.50;;;;;;;12.39;81.59;100788.19;4915112;29;20043;-72
2022/08/26 01:12:57;;;;;;;7.32;1.20;;;;;;;12.34;81.73;100786.25;4908883;29;20107;-70
2022/08/26 01:15:29;;;;;;;5.97;1.30;;;;;;;12.29;82.27;100783.50;4916215;29;20031;-72
2022/08/26 01:17:57;;;;;;;11.10;1.67;;;;;;;12.24;82.62;100783.47;4920893;29;20538;-72
2022/08/26 01:20:46;;;;;;;8.43;1.60;;;;;;;12.20;82.08;100785.09;4922868;29;20031;-71
2022/08/26 01:23:13;;;;;;;8.15;1.65;;;;;;;12.16;83.00;100789.47;4925822;29;20066;-72
2022/08/26 01:25:42;;;;;;;6.30;1.65;;;;;;;12.11;82.26;100786.72;4917237;29;20032;-73
2022/08/26 01:28:13;;;;;;;7.22;1.73;;;;;;;12.04;82.93;100784.22;4914692;29;20027;-73
2022/08/26 01:30:40;;;;;;;8.95;1.50;;;;;;;12.02;82.58;100781.75;4910984;29;20425;-72
2022/08/26 01:33:14;;;;;;;5.63;1.15;;;;;;;12.01;82.80;100787.50;4932108;29;20039;-74
2022/08/26 01:35:41;;;;;;;4.72;1.10;;;;;;;11.98;82.80;100783.38;4921436;29;20035;-72
2022/08/26 01:38:08;;;;;;;2.63;1.00;;;;;;;11.92;83.01;100778.91;4898684;29;20668;-71
2022/08/26 01:40:37;;;;;;;2.65;1.00;;;;;;;11.88;83.42;100784.13;4918145;29;20074;-72
2022/08/26 01:43:06;;;;;;;5.40;1.27;;;;;;;11.88;82.92;100783.28;4930814;29;20050;-72
2022/08/26 01:45:34;;;;;;;4.38;1.25;;;;;;;11.89;83.16;100784.94;4932389;29;20035;-72
2022/08/26 01:48:06;;;;;;;3.42;1.00;;;;;;;11.87;83.22;100781.63;4930678;29;20491;-72
2022/08/26 01:50:34;;;;;;;5.22;1.35;;;;;;;11.87;83.74;100776.13;4933737;29;20043;-72
2022/08/26 01:53:05;;;;;;;2.17;0.75;;;;;;;11.87;83.38;100781.63;4934656;29;20132;-72
2022/08/26 01:55:31;;;;;;;2.97;1.13;;;;;;;11.87;83.66;100778.88;4913069;29;20466;-73
2022/08/26 01:57:58;;;;;;;3.03;1.15;;;;;;;11.88;83.32;100778.66;4923451;29;20077;-72
2022/08/26 02:00:24;;;;;;;3.58;0.98;;;;;;;11.92;83.55;100778.91;4932403;29;20055;-72
2022/08/26 02:03:15;;;;;;;2.75;1.10;;;;;;;11.99;83.80;100782.28;4910049;29;20062;-71
2022/08/26 02:05:46;;;;;;;3.95;1.20;;;;;;;12.01;83.30;100777.34;4908203;29;20032;-74
2022/08/26 02:08:13;;;;;;;4.97;1.02;;;;;;;12.07;83.58;100783.69;4931368;29;20028;-73
2022/08/26 02:10:38;;;;;;;4.07;1.38;;;;;;;12.06;83.79;100779.28;4936775;29;20032;-72
2022/08/26 02:13:07;;;;;;;4.07;1.48;;;;;;;12.08;83.45;100785.34;4914374;29;20042;-73
2022/08/26 02:15:33;;;;;;;4.72;1.15;;;;;;;12.05;83.15;100783.94;4931085;29;20478;-74
2022/08/26 02:17:58;;;;;;;1.92;0.93;;;;;;;12.01;83.35;100782.81;4914658;29;20028;-73
2022/08/26 02:20:24;;;;;;;2.28;1.10;;;;;;;12.02;83.67;100784.47;4915588;29;20062;-73
2022/08/26 02:22:50;;;;;;;5.43;1.05;;;;;;;12.01;83.92;100793.78;4929394;29;20434;-74
2022/08/26 02:25:25;;;;;;;5.07;1.40;;;;;;;12.00;83.63;100783.94;4901465;29;20051;-74
2022/08/26 02:27:51;;;;;;;3.33;1.25;;;;;;;12.02;83.84;100792.72;4937545;29;20071;-74
2022/08/26 02:30:20;;;;;;;5.90;1.52;;;;;;;12.00;84.03;100789.41;4914912;29;20031;-75
2022/08/26 02:32:46;;;;;;;2.15;1.02;;;;;;;11.99;83.72;100793.25;4920073;29;20035;-75
2022/08/26 02:35:14;;;;;;;5.70;1.25;;;;;;;11.99;83.76;100785.03;4939359;29;20035;-74
2022/08/26 02:37:41;;;;;;;2.92;1.20;;;;;;;12.01;83.30;100790.22;4927858;29;20040;-76
2022/08/26 02:40:08;;;;;;;2.58;0.77;;;;;;;11.97;83.08;100787.22;4937215;29;20045;-74
2022/08/26 02:42:34;;;;;;;4.93;1.25;;;;;;;11.94;83.69;100792.38;4935330;29;20031;-73
2022/08/26 02:44:59;;;;;;;5.35;1.55;;;;;;;11.90;83.99;100783.84;4936376;29;20067;-72
2022/08/26 02:47:26;;;;;;;2.83;1.00;;;;;;;11.83;83.79;100788.75;4917096;29;20079;-74
2022/08/26 02:49:52;;;;;;;1.88;1.10;;;;;;;11.81;84.10;100796.38;4940763;29;20027;-74
2022/08/26 02:52:19;;;;;;;4.05;1.30;;;;;;;11.76;83.96;100790.91;4936251;29;20040;-74
2022/08/26 02:54:45;;;;;;;5.55;0.93;;;;;;;11.73;83.72;100791.44;4939685;29;20040;-73
2022/08/26 02:57:11;;;;;;;3.85;1.58;;;;;;;11.71;83.57;100799.91;4935979;29;20050;-75
2022/08/26 02:59:38;;;;;;;4.22;1.20;;;;;;;11.65;84.00;100793.56;4919182;29;20052;-73
2022/08/26 03:02:05;;;;;;;3.85;1.10;;;;;;;11.63;83.87;100801.22;4921488;29;20027;-73
2022/08/26 03:04:30;;;;;;;2.95;1.27;;;;;;;11.58;84.31;100801.19;4938139;29;20063;-73
2022/08/26 03:06:56;;;;;;;4.00;1.05;;;;;;;11.58;84.09;100801.19;4918175;29;20035;-72
2022/08/26 03:09:23;;;;;;;3.60;1.40;;;;;;;11.59;84.17;100796.53;4943723;29;20102;-73
2022/08/26 03:11:48;;;;;;;6.18;1.17;;;;;;;11.57;83.97;100799.53;4915305;29;20028;-71
2022/08/26 03:14:14;;;;;;;2.80;1.20;;;;;;;11.59;83.87;100802.00;4924943;29;20043;-73
2022/08/26 03:16:39;;;;;;;1.75;0.90;;;;;;;11.55;84.36;100795.41;4928649;29;20039;-73
2022/08/26 03:19:07;;;;;;;1.00;0.70;;;;;;;11.53;84.10;100798.41;4950318;28;20094;-74
2022/08/26 03:21:33;;;;;;;1.48;0.85;;;;;;;11.52;84.17;100783.91;4937512;29;20534;-74
2022/08/26 03:23:59;;;;;;;1.05;0.60;;;;;;;11.50;83.83;100779.78;4943465;29;20115;-75
2022/08/26 03:26:26;;;;;;;1.63;0.90;;;;;;;11.52;84.36;100785.78;4920563;29;20459;-74
2022/08/26 03:31:35;;;;;;;2.57;1.07;;;;;;;11.46;84.58;100782.22;4939713;29;20026;-76
2022/08/26 03:34:02;;;;;;;7.53;1.27;;;;;;;11.44;84.60;100775.34;4931069;29;20448;-73
2022/08/26 03:36:27;;;;;;;2.65;0.90;;;;;;;11.46;84.23;100775.91;4934269;28;20126;-73
2022/08/26 03:38:53;;;;;;;6.15;1.60;;;;;;;11.44;84.41;100775.34;4899222;29;20126;-74
2022/08/26 03:41:20;;;;;;;4.13;1.00;;;;;;;11.44;84.78;100783.56;4916522;29;20032;-74
2022/08/26 03:43:47;;;;;;;2.95;1.17;;;;;;;11.38;84.69;100776.41;4933975;29;20031;-74
2022/08/26 03:46:13;;;;;;;4.15;1.45;;;;;;;11.37;84.76;100772.00;4935452;29;20024;-73
2022/08/26 03:48:39;;;;;;;2.35;1.10;;;;;;;11.32;84.26;100776.34;4917223;29;20090;-74
2022/08/26 03:51:11;;;;;;;4.07;1.23;;;;;;;11.24;84.30;100776.03;4903642;29;20036;-73
2022/08/26 03:53:36;;;;;;;2.53;1.33;;;;;;;11.18;84.99;100775.16;4932509;29;20031;-74
2022/08/26 03:56:02;;;;;;;6.03;1.80;;;;;;;11.08;85.25;100772.31;4906787;29;20039;-73
2022/08/26 03:58:28;;;;;;;6.45;1.30;;;;;;;11.04;85.22;100773.94;4922220;29;20493;-73
2022/08/26 04:00:53;;;;;;;3.40;1.40;;;;;;;10.99;85.54;100769.25;4931560;29;20837;-74
2022/08/26 04:03:56;;;;;;;1.67;1.05;;;;;;;10.89;85.39;100764.50;4932796;29;20058;-73
2022/08/26 04:06:04;;;;;;;2.28;1.52;;;;;;;10.86;85.34;100767.75;4933324;29;20043;-73
2022/08/26 04:08:30;;;;;;;5.97;1.45;;;;;;;10.83;86.21;100768.28;4937833;29;20035;-74
2022/08/26 04:10:55;;;;;;;4.68;1.45;;;;;;;10.74;85.97;100761.63;4944025;29;20035;-74
2022/08/26 04:13:21;;;;;;;5.07;1.92;;;;;;;10.76;86.29;100778.59;4931433;29;20074;-74
2022/08/26 04:15:46;;;;;;;7.35;2.00;;;;;;;10.70;86.78;100780.47;4929120;29;20047;-73
2022/08/26 04:18:12;;;;;;;8.75;1.90;;;;;;;10.67;86.42;100780.16;4945574;29;20024;-73
2022/08/26 04:20:38;;;;;;;3.40;1.27;;;;;;;10.60;86.95;100781.19;4918029;29;20039;-71
2022/08/26 04:23:03;;;;;;;3.40;1.40;;;;;;;10.53;86.59;100783.31;4899596;29;20087;-72
2022/08/26 04:25:28;;;;;;;6.90;1.92;;;;;;;10.50;87.17;100783.81;4916456;29;20036;-73
2022/08/26 04:27:54;;;;;;;3.15;1.38;;;;;;;10.49;86.98;100779.44;4911910;29;20024;-72
2022/08/26 04:30:20;;;;;;;6.30;1.98;;;;;;;10.48;87.12;100783.25;4900505;29;20098;-72
2022/08/26 04:32:46;;;;;;;2.60;1.27;;;;;;;10.45;87.63;100784.59;4935568;29;20064;-73
2022/08/26 04:35:11;;;;;;;3.42;1.35;;;;;;;10.48;87.52;100789.56;4930659;29;20587;-72
2022/08/26 04:37:36;;;;;;;2.80;1.48;;;;;;;10.46;87.62;100779.94;4927365;28;20051;-72
2022/08/26 04:40:03;;;;;;;6.00;1.35;;;;;;;10.47;87.64;100782.44;4927780;29;20023;-72
2022/08/26 04:42:28;;;;;;;3.03;1.17;;;;;;;10.46;87.55;100779.94;4920519;29;20462;-71
2022/08/26 04:44:54;;;;;;;4.32;1.65;;;;;;;10.46;87.54;100793.63;4914359;29;20040;-73
2022/08/26 04:47:19;;;;;;;5.90;1.48;;;;;;;10.45;87.58;100783.75;4898858;29;20414;-72
2022/08/26 04:49:45;;;;;;;5.43;1.50;;;;;;;10.47;87.82;100787.06;4931699;29;20043;-72
2022/08/26 04:52:10;;;;;;;6.00;1.90;;;;;;;10.48;87.63;100788.72;4945069;29;20110;-73
2022/08/26 04:54:36;;;;;;;5.32;1.60;;;;;;;10.50;87.89;100785.72;4916533;29;20046;-73
2022/08/26 04:57:01;;;;;;;4.03;1.52;;;;;;;10.48;87.78;100783.25;4940368;29;20035;-73
2022/08/26 04:59:27;;;;;;;4.80;1.35;;;;;;;10.50;88.11;100780.25;4931531;29;20035;-73
2022/08/26 05:01:58;;;;;;;5.18;1.52;;;;;;;10.51;88.24;100782.72;4911948;29;20055;-74
2022/08/26 05:04:24;;;;;;;8.13;1.80;;;;;;;10.55;88.11;100792.06;4919125;29;20028;-74
2022/08/26 05:06:49;;;;;;;2.78;1.38;;;;;;;10.56;88.19;100791.00;4935629;29;20443;-75
2022/08/26 05:09:17;;;;;;;2.70;1.08;;;;;;;10.57;88.25;100792.66;4933776;29;20039;-72
2022/08/26 05:11:44;;;;;;;2.13;1.00;;;;;;;10.54;88.17;100787.72;4917158;29;20027;-72
2022/08/26 05:14:10;;;;;;;2.53;1.10;;;;;;;10.58;88.14;100793.47;4939495;28;20031;-74
2022/08/26 05:16:36;;;;;;;1.17;0.75;;;;;;;10.55;88.23;100783.88;4936212;29;20446;-72
2022/08/26 05:19:03;;;;;;;1.80;0.70;;;;;;;10.54;88.03;100782.22;4932993;29;20027;-73
2022/08/26 05:21:28;;;;;;;2.10;1.15;;;;;;;10.60;87.74;100794.03;4935321;29;20038;-72
2022/08/26 05:23:55;;;;;;;1.45;1.00;;;;;;;10.65;88.26;100792.19;4920263;29;20039;-72
2022/08/26 05:26:22;;;;;;;2.90;0.95;;;;;;;10.68;87.50;100793.56;4896821;29;20114;-72
2022/08/26 05:28:48;;;;;;;1.98;0.85;;;;;;;10.78;88.07;100781.94;4932842;29;20035;-71
2022/08/26 05:31:17;;;;;;;2.60;1.02;;;;;;;10.83;88.05;100787.44;4913446;29;20066;-72
2022/08/26 05:33:43;;;;;;;1.17;0.75;;;;;;;10.91;87.50;100788.88;4932220;29;20110;-70
2022/08/26 05:36:12;;;;;;;1.45;0.85;;;;;;;10.95;86.98;100793.56;4933201;28;20055;-72
2022/08/26 05:38:38;;;;;;;2.40;1.10;;;;;;;10.99;86.90;100788.41;4933040;29;20454;-71
2022/08/26 05:41:03;;;;;;;2.85;1.30;;;;;;;11.05;87.05;100797.47;4914721;29;20027;-71
2022/08/26 05:43:29;;;;;;;2.72;1.00;;;;;;;11.08;87.20;100786.00;4928650;29;20123;-72
2022/08/26 05:45:56;;;;;;;1.67;0.85;;;;;;;11.12;86.86;100795.34;4915964;29;20031;-71
2022/08/26 05:48:22;;;;;;;1.75;0.90;;;;;;;11.19;87.05;100785.03;4918822;29;20035;-72
2022/08/26 05:50:50;;;;;;;4.43;1.08;;;;;;;11.29;86.39;100790.56;4932745;29;20051;-71
2022/08/26 05:53:19;;;;;;;1.90;1.02;;;;;;;11.36;86.62;100793.09;4905647;29;20032;-72
2022/08/26 05:55:50;;;;;;;2.92;1.33;;;;;;;11.45;86.09;100785.22;4913354;29;20032;-72
2022/08/26 05:58:20;;;;;;;1.17;0.82;;;;;;;11.47;86.55;100777.56;4925990;29;20031;-71
2022/08/26 06:00:56;;;;;;;4.78;1.33;;;;;;;11.57;85.94;100785.84;4909212;29;20035;-73
2022/08/26 06:03:21;;;;;;;2.65;1.00;;;;;;;11.65;85.68;100790.84;4913160;29;20035;-72
2022/08/26 06:05:46;;;;;;;3.08;1.15;;;;;;;11.78;85.90;100799.66;4930386;29;20032;-73
2022/08/26 06:08:15;;;;;;;4.28;1.33;;;;;;;11.84;85.75;100798.59;4902758;29;20032;-72
2022/08/26 06:10:49;;;;;;;2.97;1.15;;;;;;;11.87;84.89;100787.09;4911399;29;20079;-72
2022/08/26 06:13:17;;;;;;;;;;;;;;;11.91;85.37;100781.94;4927283;29;20704;-71
2022/08/26 06:15:45;;;;;;;3.05;1.40;;;;;;;11.95;85.10;100789.38;4932990;29;19914;-72
2022/08/26 06:18:13;;;;;;;3.47;1.38;;;;;;;12.02;84.69;100784.47;4927733;29;20038;-72
2022/08/26 06:20:42;;;;;;;3.10;1.33;;;;;;;12.15;84.58;100793.28;4897794;29;20086;-72
2022/08/26 06:25:54;;;;;;;2.33;1.10;;;;;;;12.37;83.75;100780.22;4926487;29;20055;-71
2022/08/26 06:28:19;;;;;;;4.35;1.42;;;;;;;12.47;83.49;100793.16;4913578;29;20403;-74
2022/08/26 06:30:45;;;;;;;5.72;1.30;;;;;;;12.55;83.73;100791.81;4932338;29;20479;-75
2022/08/26 06:33:10;;;;;;;2.85;1.10;;;;;;;12.65;83.40;100791.84;4932844;29;20141;-74
2022/08/26 06:35:39;;;;;;;4.40;1.27;;;;;;;12.74;82.89;100790.19;4913219;29;20411;-74
2022/08/26 06:38:05;;;;;;;4.80;1.15;;;;;;;12.88;82.24;100795.19;4916264;29;20036;-73
2022/08/26 06:40:30;;;;;;;4.25;1.02;;;;;;;12.93;82.45;100789.69;4911840;29;20068;-75
2022/08/26 06:42:56;;;;;;;5.25;1.20;;;;;;;13.10;82.22;100803.97;4923069;29;20395;-73
2022/08/26 06:45:21;;;;;;;1.55;0.85;;;;;;;13.19;81.54;100795.19;4933613;29;20044;-74
2022/08/26 06:47:47;;;;;;;3.97;1.10;;;;;;;13.31;81.50;100797.66;4881479;29;20061;-74
2022/08/26 06:50:12;;;;;;;4.45;1.17;;;;;;;13.39;80.90;100800.72;4899140;29;20370;-74
2022/08/26 06:52:41;;;;;;;8.48;1.70;;;;;;;13.48;80.13;100791.91;4904771;29;20035;-75
2022/08/26 06:55:07;;;;;;;3.53;1.33;;;;;;;13.56;79.79;100792.16;4903055;29;20541;-74
2022/08/26 06:57:33;;;;;;;4.93;1.02;;;;;;;13.65;79.51;100791.59;4912514;29;20035;-73
2022/08/26 06:59:58;;;;;;;2.95;0.88;;;;;;;13.67;79.15;100790.22;4933445;29;20355;-74
2022/08/26 07:02:24;;;;;;;4.28;1.10;;;;;;;13.84;78.82;100803.66;4912290;29;20032;-74
2022/08/26 07:04:49;;;;;;;3.95;1.20;;;;;;;13.93;78.38;100799.25;4903178;29;20071;-71
2022/08/26 07:07:15;;;;;;;4.38;1.00;;;;;;;14.00;78.22;100798.94;4908769;29;20475;-73
2022/08/26 07:09:40;;;;;;;6.50;1.38;;;;;;;14.07;77.16;100804.97;4914082;29;20039;-73
2022/08/26 07:12:05;;;;;;;3.58;1.25;;;;;;;14.13;77.38;100798.34;4929132;29;20036;-73
2022/08/26 07:14:33;;;;;;;2.58;1.10;;;;;;;14.24;77.54;100803.81;4894138;29;20057;-73
2022/08/26 07:16:59;;;;;;;0.93;0.65;;;;;;;14.42;77.24;100805.09;4917621;29;20662;-74
2022/08/26 07:19:25;;;;;;;3.63;0.75;;;;;;;14.56;76.64;100794.28;4928649;29;20031;-73
2022/08/26 07:21:50;;;;;;;2.63;0.85;;;;;;;14.74;76.17;100801.91;4903987;29;20024;-73
2022/08/26 07:24:16;;;;;;;3.83;1.10;;;;;;;14.83;75.75;100808.50;4928389;29;20039;-73
2022/08/26 07:26:41;;;;;;;3.20;0.90;;;;;;;14.92;74.97;100807.88;4931004;29;20043;-75
2022/08/26 07:29:06;;;;;;;5.80;1.58;;;;;;;15.00;74.78;100810.03;4915036;29;20478;-74
2022/08/26 07:31:36;;;;;;;5.88;1.00;;;;;;;15.15;74.77;100812.66;4908242;29;20043;-76
2022/08/26 07:34:01;;;;;;;3.45;0.90;;;;;;;15.26;74.64;100801.53;4934207;29;20431;-75
2022/08/26 07:36:34;;;;;;;1.67;0.60;;;;;;;15.29;73.99;100795.47;4913449;29;20031;-72
2022/08/26 07:39:15;;;;;;;;;;;;;;;;;;;;;
2022/08/26 07:41:50;;;;;;;3.17;1.00;;;;;;;15.61;73.34;100786.63;4904182;29;20027;-74
2022/08/26 07:44:15;;;;;;;;;;;;;;;15.78;72.89;100802.72;4931765;29;20486;-74
2022/08/26 07:46:42;;;;;;;3.25;1.27;;;;;;;15.80;72.11;100805.19;4924165;29;19926;-73
2022/08/26 07:49:07;;;;;;;1.08;0.70;;;;;;;15.91;72.35;100794.91;4933047;29;20398;-74
2022/08/26 07:51:33;;;;;;;1.08;0.60;;;;;;;16.07;72.20;100798.31;4930492;29;20127;-72
2022/08/26 07:53:59;;;;;;;2.78;0.73;;;;;;;16.33;71.59;100805.13;4914847;29;20028;-75
2022/08/26 07:56:24;;;;;;;1.65;0.68;;;;;;;16.57;71.14;100802.34;4913802;29;20035;-72
2022/08/26 07:58:52;;;;;;;1.70;0.60;;;;;;;16.85;71.32;100801.66;4916710;29;20020;-71
2022/08/26 08:01:19;;;;;;;1.15;0.63;;;;;;;17.14;70.82;100809.81;4915699;29;20875;-72
2022/08/26 08:03:44;;;;;;;1.63;1.00;;;;;;;17.42;68.66;100810.75;4934042;29;20034;-74
2022/08/26 08:06:10;;;;;;;1.80;0.88;;;;;;;17.38;68.65;100808.88;4932077;29;20754;-73
2022/08/26 08:08:35;;;;;;;1.33;0.93;;;;;;;17.63;68.65;100813.13;4932747;29;21449;-75
2022/08/26 08:11:01;;;;;;;3.95;0.77;;;;;;;17.78;67.33;100812.03;4911205;29;20102;-73
2022/08/26 08:13:28;;;;;;;1.95;0.65;;;;;;;17.86;67.75;100807.72;4932333;29;20138;-72
2022/08/26 08:15:53;;;;;;;4.10;0.82;;;;;;;18.10;67.07;100813.91;4913167;29;20120;-73
2022/08/26 08:18:19;;;;;;;4.05;1.35;;;;;;;18.21;66.22;100820.09;4915623;29;20118;-73
2022/08/26 08:20:45;;;;;;;5.00;1.48;;;;;;;18.35;65.36;100820.06;4897435;29;20486;-71
2022/08/26 08:23:10;;;;;;;3.83;0.90;;;;;;;18.37;64.23;100812.28;4910053;29;20028;-72
2022/08/26 08:25:36;;;;;;;4.55;1.25;;;;;;;18.30;64.13;100815.47;4898942;29;20024;-72
2022/08/26 08:28:02;;;;;;;2.38;1.00;;;;;;;18.41;64.46;100812.47;4912196;29;20031;-73
2022/08/26 08:30:27;;;;;;;2.45;0.80;;;;;;;18.86;63.71;100812.63;4909871;29;20035;-72
2022/08/26 08:32:54;;;;;;;5.30;1.05;;;;;;;19.75;61.01;100820.41;4927522;29;20114;-71
2022/08/26 08:35:21;;;;;;;2.65;1.00;;;;;;;20.78;57.46;100811.94;4928183;28;20758;-71
2022/08/26 08:37:52;;;;;;;8.80;1.40;;;;;;;21.29;53.70;100821.44;4929110;28;20415;-71
2022/08/26 08:40:19;;;;;;;2.30;0.85;;;;;;;21.69;51.51;100818.41;4925810;29;20062;-72
2022/08/26 08:43:03;;;;;;;6.43;1.40;;;;;;;22.23;49.94;100825.41;4929624;29;20020;-73
2022/08/26 08:45:40;;;;;;;3.85;1.08;;;;;;;22.97;48.07;100829.53;4927717;29;20110;-72
2022/08/26 08:48:17;;;;;;;2.20;0.70;;;;;;;23.62;46.90;100829.09;4929098;29;20031;-75
2022/08/26 08:50:46;;;;;;;2.58;0.77;;;;;;;24.14;43.81;100833.28;4930346;29;20042;-74
2022/08/26 08:53:29;;;;;;;2.70;1.15;;;;;;;24.45;41.60;100836.66;4914966;29;20039;-73
2022/08/26 08:56:32;;;;;;;3.70;1.17;;;;;;;25.22;42.23;100836.63;4908636;29;20047;-72
2022/08/26 08:59:19;;;;;;;2.60;0.63;;;;;;;26.11;41.81;100843.03;4895834;29;20043;-72
2022/08/26 09:01:55;;;;;;;2.67;0.80;;;;;;;26.59;40.70;100840.16;4924703;29;20031;-75
2022/08/26 09:04:50;;;;;;;3.03;0.80;;;;;;;27.16;39.31;100846.25;4905522;29;20492;-77
2022/08/26 09:07:30;;;;;;;2.97;0.70;;;;;;;27.38;37.51;100846.72;4911903;29;20114;-76
2022/08/26 09:10:11;;;;;;;4.32;0.70;;;;;;;27.96;36.35;100836.50;4934443;29;20027;-75
2022/08/26 09:12:36;;;;;;;1.10;0.40;;;;;;;28.55;35.64;100834.25;4932284;29;20569;-74
2022/08/26 09:15:32;;;;;;;3.28;0.80;;;;;;;28.91;34.46;100834.78;4918367;29;20037;-78
2022/08/26 09:18:19;;;;;;;0.75;0.45;;;;;;;29.39;35.05;100829.34;4901639;29;20023;-77
2022/08/26 09:21:16;;;;;;;1.77;0.40;;;;;;;30.24;34.04;100835.38;4940228;29;20106;-75
2022/08/26 09:23:43;;;;;;;3.33;0.90;;;;;;;30.44;32.28;100845.22;4917381;29;20087;-74
2022/08/26 09:26:19;;;;;;;3.58;0.77;;;;;;;30.40;30.93;100838.75;4912281;29;20024;-75
2022/08/26 09:29:09;;;;;;;0.50;0.50;;;;;;;30.73;31.69;100825.66;4930542;29;20024;-73
2022/08/26 09:31:48;;;;;;;1.48;0.50;;;;;;;31.14;31.44;100830.31;4922943;29;20031;-75
2022/08/26 09:34:40;;;;;;;0.47;0.38;;;;;;;31.79;31.07;100836.09;4911736;29;20036;-75
2022/08/26 09:37:08;;;;;;;1.45;0.60;;;;;;;32.08;30.61;100841.78;4917332;29;20040;-76
2022/08/26 09:39:40;;;;;;;1.67;0.50;;;;;;;32.23;30.15;100805.84;4933628;29;20047;-76
2022/08/26 09:42:10;;;;;;;2.67;0.65;;;;;;;31.96;29.11;100790.06;4927917;29;20063;-76
2022/08/26 09:45:19;;;;;;;;;;;;;;;;;;;;;
2022/08/26 09:47:45;;;;;;;2.83;0.80;;;;;;;31.17;28.37;100811.75;4933743;29;20046;-75
2022/08/26 09:50:29;;;;;;;4.10;1.05;;;;;;;30.36;27.93;100820.97;4941208;29;20094;-75
2022/08/26 09:53:16;;;;;;;2.55;1.10;;;;;;;29.67;29.88;100813.13;4930566;29;20497;-74
2022/08/26 09:55:46;;;;;;;2.22;0.80;;;;;;;28.75;30.16;100806.81;4917425;29;20569;-74
2022/08/26 09:58:30;;;;;;;2.47;0.75;;;;;;;28.35;31.25;100797.81;4939648;29;20069;-75
2022/08/26 10:00:57;;;;;;;;;;;;;;;28.39;31.74;100804.28;4934326;29;20116;-75
2022/08/26 10:03:41;;;;;;;4.10;0.70;;;;;;;28.27;32.41;100795.25;4935576;29;20011;-77
2022/08/26 10:06:16;;;;;;;0.82;0.65;;;;;;;27.65;32.11;100797.03;4902678;29;20028;-73
2022/08/26 10:08:44;;;;;;;1.58;0.80;;;;;;;27.35;32.48;100802.53;4916798;29;20027;-74
2022/08/26 10:11:23;;;;;;;0.93;0.50;;;;;;;27.27;34.21;100795.13;4919613;29;20032;-74
2022/08/26 10:13:55;;;;;;;3.05;0.80;;;;;;;27.08;34.00;100804.38;4942832;29;20505;-73
2022/08/26 10:16:26;;;;;;;3.17;1.02;;;;;;;26.83;33.88;100799.03;4933149;28;20062;-72
2022/08/26 10:18:58;;;;;;;1.95;0.65;;;;;;;26.55;34.62;100794.41;4908587;29;20446;-72
2022/08/26 10:21:31;;;;;;;3.08;0.50;;;;;;;26.76;35.50;100794.06;4927537;29;20055;-73
2022/08/26 10:24:00;;;;;;;2.50;0.73;;;;;;;26.60;34.78;100802.53;4931402;29;20027;-73
2022/08/26 10:27:04;;;;;;;2.63;0.65;;;;;;;26.47;34.96;100798.22;4911079;29;20046;-72
2022/08/26 10:29:44;;;;;;;1.60;0.63;;;;;;;26.00;35.85;100797.13;4925891;29;20032;-74
2022/08/26 10:32:28;;;;;;;1.27;0.60;;;;;;;25.87;37.09;100790.75;4908651;29;20079;-73
2022/08/26 10:34:53;;;;;;;1.40;0.57;;;;;;;26.19;37.75;100785.16;4930431;29;20027;-72
2022/08/26 10:37:22;;;;;;;3.47;0.70;;;;;;;26.70;37.59;100797.56;4896458;29;20052;-70
2022/08/26 10:39:59;;;;;;;1.08;0.60;;;;;;;27.04;37.28;100792.25;4929126;29;20035;-72
2022/08/26 10:42:41;;;;;;;1.08;0.40;;;;;;;27.30;37.47;100791.56;4929117;29;20031;-74
2022/08/26 10:58:55;;;;;;;4.97;0.85;;;;;;;27.48;30.90;100784.31;4917997;28;20157;-73
2022/08/26 11:01:48;;;;;;;2.10;0.50;;;;;;;28.18;31.92;100773.03;4884306;29;20542;-73
2022/08/26 11:04:38;;;;;;;1.33;0.50;;;;;;;29.40;30.34;100776.66;4896938;29;20147;-75
2022/08/26 11:07:36;;;;;;;2.22;0.98;;;;;;;30.21;28.76;100768.47;4918290;29;20101;-74
2022/08/26 11:10:16;;;;;;;1.15;0.52;;;;;;;31.58;28.43;100774.72;4916463;29;20128;-74
2022/08/26 11:12:44;;;;;;;0.77;0.43;;;;;;;33.63;26.99;100784.63;4921535;29;20035;-74
2022/08/26 11:15:18;;;;;;;1.80;0.70;;;;;;;35.81;23.38;100779.69;4928956;29;20031;-71
2022/08/26 11:17:43;;;;;;;3.03;0.80;;;;;;;37.27;18.32;100771.53;4929355;29;20027;-75
2022/08/26 11:20:22;;;;;;;2.55;1.00;;;;;;;38.46;18.59;100781.97;4934578;29;20028;-73
2022/08/26 11:22:52;;;;;;;1.17;0.50;;;;;;;39.34;17.81;100776.09;4927028;29;20035;-74
2022/08/26 11:25:25;;;;;;;4.05;0.98;;;;;;;41.39;16.36;100780.22;4933999;29;20045;-72
2022/08/26 11:27:55;;;;;;;1.95;0.80;;;;;;;42.84;13.90;100775.53;4897629;29;20475;-73
2022/08/26 11:30:21;;;;;;;3.70;0.77;;;;;;;43.91;13.97;100768.66;4936245;29;20482;-74
2022/08/26 11:32:54;;;;;;;2.55;0.90;;;;;;;45.24;12.90;100760.63;4930143;29;20019;-73
2022/08/26 11:35:19;;;;;;;0.95;0.70;;;;;;;44.91;12.80;100761.63;4933161;29;20032;-72
2022/08/26 11:37:55;;;;;;;2.75;0.70;;;;;;;45.34;12.50;100763.38;4926314;28;20043;-72
2022/08/26 11:40:26;;;;;;;1.33;0.52;;;;;;;46.06;12.40;100761.97;4932695;29;20036;-74
2022/08/26 11:42:59;;;;;;;0.60;0.40;;;;;;;47.29;12.77;100752.88;4926463;29;20034;-74
2022/08/26 11:45:40;;;;;;;1.25;0.50;;;;;;;48.99;11.59;100744.69;4932218;29;20336;-72
2022/08/26 11:48:36;;;;;;;1.33;0.75;;;;;;;49.79;10.36;100748.97;4929044;29;20474;-72
2022/08/26 11:51:08;;;;;;;1.20;0.50;;;;;;;50.36;10.77;100748.69;4907370;29;20032;-73
2022/08/26 11:53:43;;;;;;;0.77;0.45;;;;;;;50.81;10.20;100739.59;4929474;29;20038;-73
2022/08/26 11:56:16;;;;;;;2.50;0.70;;;;;;;51.47;8.28;100746.63;4923410;29;20379;-75
2022/08/26 11:58:42;;;;;;;;;;;;;;;50.41;9.02;100721.69;4910785;29;20024;-74
2022/08/26 12:01:10;;;;;;;1.75;0.60;;;;;;;50.55;8.76;100733.47;4927179;29;20005;-74